sensor_id;sensor_type;location;lat;lon;timestamp;P1;durP1;ratioP1;P2;durP2;ratioP2
19278;SDS011;9773;47.062;15.446;2023-02-04T00:00:53;2.20;;;2.00;;
19278;SDS011;9773;47.062;15.446;2023-02-04T00:03:19;2.33;;;2.23;;
19278;SDS011;9773;47.062;15.446;2023-02-04T00:05:45;2.30;;;2.20;;
19278;SDS011;9773;47.062;15.446;2023-02-04T00:08:11;2.90;;;2.33;;
19278;SDS011;9773;47.062;15.446;2023-02-04T00:10:36;2.77;;;2.40;;
19278;SDS011;9773;47.062;15.446;2023-02-04T00:13:03;3.10;;;2.80;;
19278;SDS011;9773;47.062;15.446;2023-02-04T00:15:29;2.60;;;2.40;;
19278;SDS011;9773;47.062;15.446;2023-02-04T00:17:55;1.90;;;1.80;;
19278;SDS011;9773;47.062;15.446;2023-02-04T00:20:21;2.30;;;2.10;;
19278;SDS011;9773;47.062;15.446;2023-02-04T00:22:47;1.77;;;1.67;;
19278;SDS011;9773;47.062;15.446;2023-02-04T00:25:13;1.40;;;1.40;;
19278;SDS011;9773;47.062;15.446;2023-02-04T00:27:39;1.30;;;1.27;;
19278;SDS011;9773;47.062;15.446;2023-02-04T00:30:05;0.97;;;0.97;;
19278;SDS011;9773;47.062;15.446;2023-02-04T00:32:32;0.90;;;0.90;;
19278;SDS011;9773;47.062;15.446;2023-02-04T00:34:58;1.00;;;1.00;;
19278;SDS011;9773;47.062;15.446;2023-02-04T00:37:25;1.53;;;1.00;;
19278;SDS011;9773;47.062;15.446;2023-02-04T00:39:51;1.20;;;1.20;;
19278;SDS011;9773;47.062;15.446;2023-02-04T00:42:17;1.30;;;1.30;;
19278;SDS011;9773;47.062;15.446;2023-02-04T00:44:43;1.30;;;1.30;;
19278;SDS011;9773;47.062;15.446;2023-02-04T00:47:09;1.10;;;1.10;;
19278;SDS011;9773;47.062;15.446;2023-02-04T00:49:35;1.00;;;1.00;;
19278;SDS011;9773;47.062;15.446;2023-02-04T00:52:00;1.13;;;1.13;;
19278;SDS011;9773;47.062;15.446;2023-02-04T00:54:26;1.00;;;1.00;;
19278;SDS011;9773;47.062;15.446;2023-02-04T00:56:52;0.77;;;0.77;;
19278;SDS011;9773;47.062;15.446;2023-02-04T00:59:18;0.53;;;0.53;;
19278;SDS011;9773;47.062;15.446;2023-02-04T01:01:44;0.90;;;0.90;;
19278;SDS011;9773;47.062;15.446;2023-02-04T01:04:10;0.57;;;0.57;;
19278;SDS011;9773;47.062;15.446;2023-02-04T01:06:36;0.73;;;0.73;;
19278;SDS011;9773;47.062;15.446;2023-02-04T01:09:02;1.20;;;1.10;;
19278;SDS011;9773;47.062;15.446;2023-02-04T01:11:29;0.50;;;0.50;;
19278;SDS011;9773;47.062;15.446;2023-02-04T01:13:55;0.50;;;0.50;;
19278;SDS011;9773;47.062;15.446;2023-02-04T01:16:21;0.50;;;0.50;;
19278;SDS011;9773;47.062;15.446;2023-02-04T01:18:47;0.33;;;0.33;;
19278;SDS011;9773;47.062;15.446;2023-02-04T01:21:13;0.50;;;0.50;;
19278;SDS011;9773;47.062;15.446;2023-02-04T01:23:39;0.30;;;0.30;;
19278;SDS011;9773;47.062;15.446;2023-02-04T01:26:04;0.90;;;0.40;;
19278;SDS011;9773;47.062;15.446;2023-02-04T01:28:31;0.40;;;0.40;;
19278;SDS011;9773;47.062;15.446;2023-02-04T01:30:56;0.37;;;0.37;;
19278;SDS011;9773;47.062;15.446;2023-02-04T01:33:22;0.30;;;0.30;;
19278;SDS011;9773;47.062;15.446;2023-02-04T01:35:48;0.50;;;0.50;;
19278;SDS011;9773;47.062;15.446;2023-02-04T01:38:14;0.63;;;0.40;;
19278;SDS011;9773;47.062;15.446;2023-02-04T01:40:40;0.30;;;0.30;;
19278;SDS011;9773;47.062;15.446;2023-02-04T01:43:06;0.30;;;0.30;;
19278;SDS011;9773;47.062;15.446;2023-02-04T01:45:32;0.20;;;0.20;;
19278;SDS011;9773;47.062;15.446;2023-02-04T01:48:00;0.40;;;0.40;;
19278;SDS011;9773;47.062;15.446;2023-02-04T01:50:30;0.20;;;0.20;;
19278;SDS011;9773;47.062;15.446;2023-02-04T01:52:56;1.03;;;0.30;;
19278;SDS011;9773;47.062;15.446;2023-02-04T01:55:25;0.43;;;0.43;;
19278;SDS011;9773;47.062;15.446;2023-02-04T01:57:53;0.30;;;0.30;;
19278;SDS011;9773;47.062;15.446;2023-02-04T02:00:29;0.30;;;0.30;;
19278;SDS011;9773;47.062;15.446;2023-02-04T02:02:57;0.30;;;0.30;;
19278;SDS011;9773;47.062;15.446;2023-02-04T02:08:02;0.40;;;0.40;;
19278;SDS011;9773;47.062;15.446;2023-02-04T02:10:29;0.30;;;0.30;;
19278;SDS011;9773;47.062;15.446;2023-02-04T02:12:55;0.77;;;0.30;;
19278;SDS011;9773;47.062;15.446;2023-02-04T02:15:22;0.30;;;0.30;;
19278;SDS011;9773;47.062;15.446;2023-02-04T02:17:49;0.53;;;0.43;;
19278;SDS011;9773;47.062;15.446;2023-02-04T02:20:17;0.20;;;0.20;;
19278;SDS011;9773;47.062;15.446;2023-02-04T02:25:44;0.20;;;0.20;;
19278;SDS011;9773;47.062;15.446;2023-02-04T02:28:12;0.30;;;0.30;;
19278;SDS011;9773;47.062;15.446;2023-02-04T02:30:40;0.30;;;0.30;;
19278;SDS011;9773;47.062;15.446;2023-02-04T02:33:09;0.30;;;0.30;;
19278;SDS011;9773;47.062;15.446;2023-02-04T02:35:38;0.33;;;0.33;;
19278;SDS011;9773;47.062;15.446;2023-02-04T02:38:09;0.27;;;0.27;;
19278;SDS011;9773;47.062;15.446;2023-02-04T02:40:35;1.97;;;0.30;;
19278;SDS011;9773;47.062;15.446;2023-02-04T02:43:02;0.30;;;0.30;;
19278;SDS011;9773;47.062;15.446;2023-02-04T02:45:30;0.10;;;0.10;;
19278;SDS011;9773;47.062;15.446;2023-02-04T02:47:57;0.20;;;0.20;;
19278;SDS011;9773;47.062;15.446;2023-02-04T02:50:26;0.30;;;0.30;;
19278;SDS011;9773;47.062;15.446;2023-02-04T02:52:54;0.20;;;0.20;;
19278;SDS011;9773;47.062;15.446;2023-02-04T02:55:21;1.20;;;0.50;;
19278;SDS011;9773;47.062;15.446;2023-02-04T02:57:48;0.20;;;0.20;;
19278;SDS011;9773;47.062;15.446;2023-02-04T03:00:16;0.37;;;0.37;;
19278;SDS011;9773;47.062;15.446;2023-02-04T03:02:56;0.20;;;0.20;;
19278;SDS011;9773;47.062;15.446;2023-02-04T03:05:37;0.40;;;0.40;;
19278;SDS011;9773;47.062;15.446;2023-02-04T03:08:07;0.30;;;0.30;;
19278;SDS011;9773;47.062;15.446;2023-02-04T03:10:34;0.30;;;0.30;;
19278;SDS011;9773;47.062;15.446;2023-02-04T03:13:01;0.13;;;0.13;;
19278;SDS011;9773;47.062;15.446;2023-02-04T03:15:28;0.40;;;0.40;;
19278;SDS011;9773;47.062;15.446;2023-02-04T03:17:54;0.30;;;0.30;;
19278;SDS011;9773;47.062;15.446;2023-02-04T03:20:24;0.37;;;0.37;;
19278;SDS011;9773;47.062;15.446;2023-02-04T03:22:52;0.10;;;0.10;;
19278;SDS011;9773;47.062;15.446;2023-02-04T03:25:18;0.30;;;0.30;;
19278;SDS011;9773;47.062;15.446;2023-02-04T03:27:45;0.30;;;0.30;;
19278;SDS011;9773;47.062;15.446;2023-02-04T03:30:11;0.20;;;0.20;;
19278;SDS011;9773;47.062;15.446;2023-02-04T03:32:37;0.20;;;0.20;;
19278;SDS011;9773;47.062;15.446;2023-02-04T03:35:03;0.30;;;0.30;;
19278;SDS011;9773;47.062;15.446;2023-02-04T03:37:28;0.20;;;0.20;;
19278;SDS011;9773;47.062;15.446;2023-02-04T03:39:54;0.40;;;0.40;;
19278;SDS011;9773;47.062;15.446;2023-02-04T03:42:20;0.30;;;0.30;;
19278;SDS011;9773;47.062;15.446;2023-02-04T03:44:46;0.33;;;0.33;;
19278;SDS011;9773;47.062;15.446;2023-02-04T03:47:11;0.30;;;0.30;;
19278;SDS011;9773;47.062;15.446;2023-02-04T03:49:37;0.20;;;0.20;;
19278;SDS011;9773;47.062;15.446;2023-02-04T03:52:03;0.20;;;0.20;;
19278;SDS011;9773;47.062;15.446;2023-02-04T03:54:29;0.30;;;0.30;;
19278;SDS011;9773;47.062;15.446;2023-02-04T03:56:55;0.40;;;0.40;;
19278;SDS011;9773;47.062;15.446;2023-02-04T03:59:21;0.30;;;0.30;;
19278;SDS011;9773;47.062;15.446;2023-02-04T04:01:47;0.20;;;0.20;;
19278;SDS011;9773;47.062;15.446;2023-02-04T04:04:12;0.30;;;0.30;;
19278;SDS011;9773;47.062;15.446;2023-02-04T04:06:38;0.10;;;0.10;;
19278;SDS011;9773;47.062;15.446;2023-02-04T04:09:05;0.27;;;0.27;;
19278;SDS011;9773;47.062;15.446;2023-02-04T04:11:31;0.20;;;0.20;;
19278;SDS011;9773;47.062;15.446;2023-02-04T04:13:57;0.30;;;0.30;;
19278;SDS011;9773;47.062;15.446;2023-02-04T04:16:23;0.20;;;0.20;;
19278;SDS011;9773;47.062;15.446;2023-02-04T04:18:48;0.20;;;0.20;;
19278;SDS011;9773;47.062;15.446;2023-02-04T04:21:14;0.33;;;0.33;;
19278;SDS011;9773;47.062;15.446;2023-02-04T04:23:40;1.10;;;0.20;;
19278;SDS011;9773;47.062;15.446;2023-02-04T04:26:06;0.40;;;0.40;;
19278;SDS011;9773;47.062;15.446;2023-02-04T04:28:31;0.20;;;0.20;;
19278;SDS011;9773;47.062;15.446;2023-02-04T04:30:57;0.20;;;0.20;;
19278;SDS011;9773;47.062;15.446;2023-02-04T04:33:23;0.40;;;0.40;;
19278;SDS011;9773;47.062;15.446;2023-02-04T04:35:49;0.50;;;0.50;;
19278;SDS011;9773;47.062;15.446;2023-02-04T04:38:14;0.30;;;0.30;;
19278;SDS011;9773;47.062;15.446;2023-02-04T04:40:40;0.30;;;0.30;;
19278;SDS011;9773;47.062;15.446;2023-02-04T04:43:06;0.40;;;0.40;;
19278;SDS011;9773;47.062;15.446;2023-02-04T04:45:32;0.33;;;0.33;;
19278;SDS011;9773;47.062;15.446;2023-02-04T04:47:57;0.20;;;0.20;;
19278;SDS011;9773;47.062;15.446;2023-02-04T04:50:23;0.93;;;0.37;;
19278;SDS011;9773;47.062;15.446;2023-02-04T04:52:49;0.30;;;0.30;;
19278;SDS011;9773;47.062;15.446;2023-02-04T04:55:15;1.53;;;0.20;;
19278;SDS011;9773;47.062;15.446;2023-02-04T04:57:41;0.20;;;0.20;;
19278;SDS011;9773;47.062;15.446;2023-02-04T05:00:07;0.20;;;0.20;;
19278;SDS011;9773;47.062;15.446;2023-02-04T05:02:33;0.27;;;0.27;;
19278;SDS011;9773;47.062;15.446;2023-02-04T05:04:59;0.30;;;0.30;;
19278;SDS011;9773;47.062;15.446;2023-02-04T05:07:24;0.30;;;0.30;;
19278;SDS011;9773;47.062;15.446;2023-02-04T05:09:51;0.40;;;0.40;;
19278;SDS011;9773;47.062;15.446;2023-02-04T05:12:17;0.20;;;0.20;;
19278;SDS011;9773;47.062;15.446;2023-02-04T05:14:43;0.30;;;0.30;;
19278;SDS011;9773;47.062;15.446;2023-02-04T05:17:08;0.30;;;0.30;;
19278;SDS011;9773;47.062;15.446;2023-02-04T05:19:36;0.40;;;0.40;;
19278;SDS011;9773;47.062;15.446;2023-02-04T05:22:01;0.30;;;0.30;;
19278;SDS011;9773;47.062;15.446;2023-02-04T05:24:27;0.43;;;0.43;;
19278;SDS011;9773;47.062;15.446;2023-02-04T05:26:53;0.90;;;0.30;;
19278;SDS011;9773;47.062;15.446;2023-02-04T05:29:19;0.33;;;0.33;;
19278;SDS011;9773;47.062;15.446;2023-02-04T05:31:44;0.40;;;0.40;;
19278;SDS011;9773;47.062;15.446;2023-02-04T05:34:10;0.40;;;0.40;;
19278;SDS011;9773;47.062;15.446;2023-02-04T05:36:36;0.30;;;0.30;;
19278;SDS011;9773;47.062;15.446;2023-02-04T05:39:02;0.37;;;0.37;;
19278;SDS011;9773;47.062;15.446;2023-02-04T05:41:27;0.30;;;0.30;;
19278;SDS011;9773;47.062;15.446;2023-02-04T05:43:53;0.37;;;0.37;;
19278;SDS011;9773;47.062;15.446;2023-02-04T05:46:19;0.20;;;0.20;;
19278;SDS011;9773;47.062;15.446;2023-02-04T05:48:45;0.60;;;0.60;;
19278;SDS011;9773;47.062;15.446;2023-02-04T05:51:10;0.73;;;0.30;;
19278;SDS011;9773;47.062;15.446;2023-02-04T05:53:36;0.37;;;0.37;;
19278;SDS011;9773;47.062;15.446;2023-02-04T05:56:02;0.33;;;0.33;;
19278;SDS011;9773;47.062;15.446;2023-02-04T05:58:28;0.70;;;0.47;;
19278;SDS011;9773;47.062;15.446;2023-02-04T06:01:00;0.40;;;0.40;;
19278;SDS011;9773;47.062;15.446;2023-02-04T06:03:26;0.40;;;0.40;;
19278;SDS011;9773;47.062;15.446;2023-02-04T06:05:53;0.40;;;0.40;;
19278;SDS011;9773;47.062;15.446;2023-02-04T06:08:19;0.20;;;0.20;;
19278;SDS011;9773;47.062;15.446;2023-02-04T06:10:45;1.20;;;0.37;;
19278;SDS011;9773;47.062;15.446;2023-02-04T06:13:10;0.30;;;0.30;;
19278;SDS011;9773;47.062;15.446;2023-02-04T06:15:36;0.43;;;0.43;;
19278;SDS011;9773;47.062;15.446;2023-02-04T06:18:02;0.40;;;0.40;;
19278;SDS011;9773;47.062;15.446;2023-02-04T06:20:28;0.10;;;0.10;;
19278;SDS011;9773;47.062;15.446;2023-02-04T06:22:54;0.30;;;0.30;;
19278;SDS011;9773;47.062;15.446;2023-02-04T06:25:20;0.47;;;0.47;;
19278;SDS011;9773;47.062;15.446;2023-02-04T06:27:46;0.30;;;0.30;;
19278;SDS011;9773;47.062;15.446;2023-02-04T06:30:13;0.40;;;0.40;;
19278;SDS011;9773;47.062;15.446;2023-02-04T06:32:39;0.30;;;0.30;;
19278;SDS011;9773;47.062;15.446;2023-02-04T06:35:05;0.30;;;0.23;;
19278;SDS011;9773;47.062;15.446;2023-02-04T06:37:31;0.33;;;0.33;;
19278;SDS011;9773;47.062;15.446;2023-02-04T06:39:57;0.20;;;0.20;;
19278;SDS011;9773;47.062;15.446;2023-02-04T06:42:23;0.30;;;0.30;;
19278;SDS011;9773;47.062;15.446;2023-02-04T06:44:52;0.33;;;0.33;;
19278;SDS011;9773;47.062;15.446;2023-02-04T06:47:18;0.20;;;0.20;;
19278;SDS011;9773;47.062;15.446;2023-02-04T06:49:44;0.30;;;0.30;;
19278;SDS011;9773;47.062;15.446;2023-02-04T06:52:10;0.47;;;0.47;;
19278;SDS011;9773;47.062;15.446;2023-02-04T06:54:36;0.30;;;0.30;;
19278;SDS011;9773;47.062;15.446;2023-02-04T06:57:02;0.27;;;0.27;;
19278;SDS011;9773;47.062;15.446;2023-02-04T06:59:34;0.30;;;0.30;;
19278;SDS011;9773;47.062;15.446;2023-02-04T07:02:01;0.53;;;0.40;;
19278;SDS011;9773;47.062;15.446;2023-02-04T07:04:28;0.30;;;0.30;;
19278;SDS011;9773;47.062;15.446;2023-02-04T07:06:54;0.57;;;0.57;;
19278;SDS011;9773;47.062;15.446;2023-02-04T07:09:19;0.73;;;0.73;;
19278;SDS011;9773;47.062;15.446;2023-02-04T07:11:45;0.47;;;0.47;;
19278;SDS011;9773;47.062;15.446;2023-02-04T07:14:11;0.30;;;0.30;;
19278;SDS011;9773;47.062;15.446;2023-02-04T07:16:37;0.20;;;0.20;;
19278;SDS011;9773;47.062;15.446;2023-02-04T07:19:03;0.50;;;0.50;;
19278;SDS011;9773;47.062;15.446;2023-02-04T07:21:29;0.30;;;0.30;;
19278;SDS011;9773;47.062;15.446;2023-02-04T07:23:55;0.50;;;0.50;;
19278;SDS011;9773;47.062;15.446;2023-02-04T07:26:21;0.53;;;0.50;;
19278;SDS011;9773;47.062;15.446;2023-02-04T07:28:48;0.37;;;0.37;;
19278;SDS011;9773;47.062;15.446;2023-02-04T07:31:14;0.30;;;0.30;;
19278;SDS011;9773;47.062;15.446;2023-02-04T07:33:40;0.40;;;0.40;;
19278;SDS011;9773;47.062;15.446;2023-02-04T07:36:05;0.53;;;0.53;;
19278;SDS011;9773;47.062;15.446;2023-02-04T07:38:31;0.50;;;0.50;;
19278;SDS011;9773;47.062;15.446;2023-02-04T07:40:57;0.60;;;0.60;;
19278;SDS011;9773;47.062;15.446;2023-02-04T07:43:23;0.47;;;0.47;;
19278;SDS011;9773;47.062;15.446;2023-02-04T07:45:49;0.60;;;0.60;;
19278;SDS011;9773;47.062;15.446;2023-02-04T07:48:16;0.70;;;0.70;;
19278;SDS011;9773;47.062;15.446;2023-02-04T07:50:41;0.60;;;0.60;;
19278;SDS011;9773;47.062;15.446;2023-02-04T07:53:07;0.70;;;0.70;;
19278;SDS011;9773;47.062;15.446;2023-02-04T07:55:33;0.77;;;0.77;;
19278;SDS011;9773;47.062;15.446;2023-02-04T07:57:59;2.33;;;0.67;;
19278;SDS011;9773;47.062;15.446;2023-02-04T08:00:24;0.50;;;0.50;;
19278;SDS011;9773;47.062;15.446;2023-02-04T08:02:50;0.60;;;0.60;;
19278;SDS011;9773;47.062;15.446;2023-02-04T08:05:16;0.70;;;0.70;;
19278;SDS011;9773;47.062;15.446;2023-02-04T08:07:42;0.30;;;0.30;;
19278;SDS011;9773;47.062;15.446;2023-02-04T08:10:08;0.50;;;0.50;;
19278;SDS011;9773;47.062;15.446;2023-02-04T08:12:35;0.50;;;0.50;;
19278;SDS011;9773;47.062;15.446;2023-02-04T08:15:01;0.63;;;0.63;;
19278;SDS011;9773;47.062;15.446;2023-02-04T08:17:27;0.33;;;0.33;;
19278;SDS011;9773;47.062;15.446;2023-02-04T08:19:53;0.57;;;0.57;;
19278;SDS011;9773;47.062;15.446;2023-02-04T08:22:18;0.60;;;0.60;;
19278;SDS011;9773;47.062;15.446;2023-02-04T08:24:45;0.77;;;0.77;;
19278;SDS011;9773;47.062;15.446;2023-02-04T08:27:11;0.57;;;0.57;;
19278;SDS011;9773;47.062;15.446;2023-02-04T08:29:37;0.50;;;0.50;;
19278;SDS011;9773;47.062;15.446;2023-02-04T08:32:04;0.63;;;0.63;;
19278;SDS011;9773;47.062;15.446;2023-02-04T08:34:30;0.80;;;0.80;;
19278;SDS011;9773;47.062;15.446;2023-02-04T08:36:56;0.67;;;0.67;;
19278;SDS011;9773;47.062;15.446;2023-02-04T08:39:22;0.60;;;0.60;;
19278;SDS011;9773;47.062;15.446;2023-02-04T08:41:48;0.50;;;0.50;;
19278;SDS011;9773;47.062;15.446;2023-02-04T08:44:15;0.50;;;0.50;;
19278;SDS011;9773;47.062;15.446;2023-02-04T08:46:41;0.50;;;0.50;;
19278;SDS011;9773;47.062;15.446;2023-02-04T08:49:08;0.40;;;0.40;;
19278;SDS011;9773;47.062;15.446;2023-02-04T08:51:34;0.43;;;0.43;;
19278;SDS011;9773;47.062;15.446;2023-02-04T08:54:00;0.50;;;0.50;;
19278;SDS011;9773;47.062;15.446;2023-02-04T08:56:26;0.60;;;0.60;;
19278;SDS011;9773;47.062;15.446;2023-02-04T08:58:51;0.60;;;0.60;;
19278;SDS011;9773;47.062;15.446;2023-02-04T09:01:18;0.50;;;0.50;;
19278;SDS011;9773;47.062;15.446;2023-02-04T09:03:44;0.60;;;0.60;;
19278;SDS011;9773;47.062;15.446;2023-02-04T09:06:10;0.40;;;0.40;;
19278;SDS011;9773;47.062;15.446;2023-02-04T09:08:36;0.40;;;0.40;;
19278;SDS011;9773;47.062;15.446;2023-02-04T09:11:02;0.30;;;0.30;;
19278;SDS011;9773;47.062;15.446;2023-02-04T09:13:29;0.40;;;0.40;;
19278;SDS011;9773;47.062;15.446;2023-02-04T09:15:55;0.57;;;0.57;;
19278;SDS011;9773;47.062;15.446;2023-02-04T09:18:21;0.40;;;0.40;;
19278;SDS011;9773;47.062;15.446;2023-02-04T09:20:49;0.30;;;0.30;;
19278;SDS011;9773;47.062;15.446;2023-02-04T09:23:15;0.53;;;0.53;;
19278;SDS011;9773;47.062;15.446;2023-02-04T09:25:42;0.40;;;0.40;;
19278;SDS011;9773;47.062;15.446;2023-02-04T09:28:09;0.30;;;0.30;;
19278;SDS011;9773;47.062;15.446;2023-02-04T09:30:36;0.30;;;0.30;;
19278;SDS011;9773;47.062;15.446;2023-02-04T09:33:03;0.40;;;0.40;;
19278;SDS011;9773;47.062;15.446;2023-02-04T09:35:29;0.20;;;0.20;;
19278;SDS011;9773;47.062;15.446;2023-02-04T09:37:55;0.43;;;0.43;;
19278;SDS011;9773;47.062;15.446;2023-02-04T09:40:20;0.47;;;0.47;;
19278;SDS011;9773;47.062;15.446;2023-02-04T09:42:47;0.40;;;0.40;;
19278;SDS011;9773;47.062;15.446;2023-02-04T09:45:19;0.50;;;0.50;;
19278;SDS011;9773;47.062;15.446;2023-02-04T09:47:48;0.70;;;0.70;;
19278;SDS011;9773;47.062;15.446;2023-02-04T09:50:16;0.63;;;0.57;;
19278;SDS011;9773;47.062;15.446;2023-02-04T09:52:47;0.47;;;0.47;;
19278;SDS011;9773;47.062;15.446;2023-02-04T09:55:15;0.60;;;0.50;;
19278;SDS011;9773;47.062;15.446;2023-02-04T09:57:43;0.60;;;0.60;;
19278;SDS011;9773;47.062;15.446;2023-02-04T10:00:14;1.17;;;1.17;;
19278;SDS011;9773;47.062;15.446;2023-02-04T10:02:50;0.50;;;0.50;;
19278;SDS011;9773;47.062;15.446;2023-02-04T10:05:22;0.50;;;0.50;;
19278;SDS011;9773;47.062;15.446;2023-02-04T10:07:52;0.50;;;0.50;;
19278;SDS011;9773;47.062;15.446;2023-02-04T10:10:19;0.50;;;0.50;;
19278;SDS011;9773;47.062;15.446;2023-02-04T10:12:49;0.40;;;0.40;;
19278;SDS011;9773;47.062;15.446;2023-02-04T10:15:17;0.50;;;0.50;;
19278;SDS011;9773;47.062;15.446;2023-02-04T10:17:44;0.47;;;0.47;;
19278;SDS011;9773;47.062;15.446;2023-02-04T10:20:13;0.50;;;0.50;;
19278;SDS011;9773;47.062;15.446;2023-02-04T10:22:42;0.40;;;0.40;;
19278;SDS011;9773;47.062;15.446;2023-02-04T10:25:12;0.50;;;0.50;;
19278;SDS011;9773;47.062;15.446;2023-02-04T10:30:20;0.40;;;0.40;;
19278;SDS011;9773;47.062;15.446;2023-02-04T10:32:46;0.70;;;0.70;;
19278;SDS011;9773;47.062;15.446;2023-02-04T10:35:14;0.60;;;0.60;;
19278;SDS011;9773;47.062;15.446;2023-02-04T10:37:41;0.53;;;0.53;;
19278;SDS011;9773;47.062;15.446;2023-02-04T10:42:56;0.50;;;0.50;;
19278;SDS011;9773;47.062;15.446;2023-02-04T10:45:26;0.50;;;0.50;;
19278;SDS011;9773;47.062;15.446;2023-02-04T10:47:54;0.50;;;0.50;;
19278;SDS011;9773;47.062;15.446;2023-02-04T10:50:22;1.17;;;1.07;;
19278;SDS011;9773;47.062;15.446;2023-02-04T10:52:59;0.97;;;0.60;;
19278;SDS011;9773;47.062;15.446;2023-02-04T10:55:45;0.70;;;0.70;;
19278;SDS011;9773;47.062;15.446;2023-02-04T10:58:14;0.90;;;0.90;;
19278;SDS011;9773;47.062;15.446;2023-02-04T11:00:44;1.03;;;0.87;;
19278;SDS011;9773;47.062;15.446;2023-02-04T11:03:20;0.80;;;0.80;;
19278;SDS011;9773;47.062;15.446;2023-02-04T11:05:47;0.50;;;0.50;;
19278;SDS011;9773;47.062;15.446;2023-02-04T11:08:21;0.70;;;0.70;;
19278;SDS011;9773;47.062;15.446;2023-02-04T11:13:42;1.00;;;0.67;;
19278;SDS011;9773;47.062;15.446;2023-02-04T11:16:31;0.60;;;0.60;;
19278;SDS011;9773;47.062;15.446;2023-02-04T11:26:45;0.40;;;0.40;;
19278;SDS011;9773;47.062;15.446;2023-02-04T11:39:38;0.83;;;0.70;;
19278;SDS011;9773;47.062;15.446;2023-02-04T11:42:25;0.57;;;0.57;;
19278;SDS011;9773;47.062;15.446;2023-02-04T11:44:58;3.13;;;0.80;;
19278;SDS011;9773;47.062;15.446;2023-02-04T11:47:26;0.47;;;0.47;;
19278;SDS011;9773;47.062;15.446;2023-02-04T11:49:58;0.87;;;0.50;;
19278;SDS011;9773;47.062;15.446;2023-02-04T11:52:56;0.90;;;0.90;;
19278;SDS011;9773;47.062;15.446;2023-02-04T11:55:23;2.13;;;0.60;;
19278;SDS011;9773;47.062;15.446;2023-02-04T11:57:51;0.80;;;0.80;;
19278;SDS011;9773;47.062;15.446;2023-02-04T12:00:19;0.80;;;0.80;;
19278;SDS011;9773;47.062;15.446;2023-02-04T12:02:55;0.50;;;0.50;;
19278;SDS011;9773;47.062;15.446;2023-02-04T12:08:10;0.60;;;0.60;;
19278;SDS011;9773;47.062;15.446;2023-02-04T12:10:37;0.50;;;0.50;;
19278;SDS011;9773;47.062;15.446;2023-02-04T12:13:11;0.90;;;0.90;;
19278;SDS011;9773;47.062;15.446;2023-02-04T12:15:41;0.60;;;0.60;;
19278;SDS011;9773;47.062;15.446;2023-02-04T12:18:16;0.57;;;0.57;;
19278;SDS011;9773;47.062;15.446;2023-02-04T12:20:41;0.70;;;0.70;;
19278;SDS011;9773;47.062;15.446;2023-02-04T12:23:07;0.80;;;0.77;;
19278;SDS011;9773;47.062;15.446;2023-02-04T12:25:33;0.67;;;0.67;;
19278;SDS011;9773;47.062;15.446;2023-02-04T12:27:59;0.67;;;0.67;;
19278;SDS011;9773;47.062;15.446;2023-02-04T12:30:25;0.70;;;0.70;;
19278;SDS011;9773;47.062;15.446;2023-02-04T12:32:51;0.60;;;0.60;;
19278;SDS011;9773;47.062;15.446;2023-02-04T12:35:18;0.60;;;0.60;;
19278;SDS011;9773;47.062;15.446;2023-02-04T12:37:44;0.70;;;0.70;;
19278;SDS011;9773;47.062;15.446;2023-02-04T12:40:16;1.93;;;1.07;;
19278;SDS011;9773;47.062;15.446;2023-02-04T12:42:43;0.67;;;0.67;;
19278;SDS011;9773;47.062;15.446;2023-02-04T12:45:10;0.70;;;0.70;;
19278;SDS011;9773;47.062;15.446;2023-02-04T12:47:37;0.70;;;0.70;;
19278;SDS011;9773;47.062;15.446;2023-02-04T12:50:04;0.63;;;0.63;;
19278;SDS011;9773;47.062;15.446;2023-02-04T12:52:31;0.60;;;0.60;;
19278;SDS011;9773;47.062;15.446;2023-02-04T12:54:57;0.50;;;0.50;;
19278;SDS011;9773;47.062;15.446;2023-02-04T12:57:26;0.70;;;0.70;;
19278;SDS011;9773;47.062;15.446;2023-02-04T12:59:51;0.60;;;0.60;;
19278;SDS011;9773;47.062;15.446;2023-02-04T13:02:17;0.77;;;0.77;;
19278;SDS011;9773;47.062;15.446;2023-02-04T13:04:43;2.07;;;0.80;;
19278;SDS011;9773;47.062;15.446;2023-02-04T13:07:09;0.60;;;0.60;;
19278;SDS011;9773;47.062;15.446;2023-02-04T13:09:35;0.90;;;0.90;;
19278;SDS011;9773;47.062;15.446;2023-02-04T13:12:01;0.73;;;0.73;;
19278;SDS011;9773;47.062;15.446;2023-02-04T13:14:27;0.60;;;0.60;;
19278;SDS011;9773;47.062;15.446;2023-02-04T13:16:53;1.00;;;0.57;;
19278;SDS011;9773;47.062;15.446;2023-02-04T13:19:19;0.60;;;0.60;;
19278;SDS011;9773;47.062;15.446;2023-02-04T13:21:44;0.60;;;0.60;;
19278;SDS011;9773;47.062;15.446;2023-02-04T13:24:10;0.80;;;0.80;;
19278;SDS011;9773;47.062;15.446;2023-02-04T13:26:36;0.70;;;0.70;;
19278;SDS011;9773;47.062;15.446;2023-02-04T13:29:02;0.80;;;0.80;;
19278;SDS011;9773;47.062;15.446;2023-02-04T13:31:28;0.90;;;0.90;;
19278;SDS011;9773;47.062;15.446;2023-02-04T13:33:53;0.80;;;0.80;;
19278;SDS011;9773;47.062;15.446;2023-02-04T13:36:19;0.87;;;0.87;;
19278;SDS011;9773;47.062;15.446;2023-02-04T13:38:45;0.70;;;0.70;;
19278;SDS011;9773;47.062;15.446;2023-02-04T13:41:11;0.70;;;0.70;;
19278;SDS011;9773;47.062;15.446;2023-02-04T13:43:37;0.80;;;0.80;;
19278;SDS011;9773;47.062;15.446;2023-02-04T13:46:02;0.90;;;0.90;;
19278;SDS011;9773;47.062;15.446;2023-02-04T13:48:30;1.07;;;1.07;;
19278;SDS011;9773;47.062;15.446;2023-02-04T13:50:56;0.70;;;0.70;;
19278;SDS011;9773;47.062;15.446;2023-02-04T13:53:21;0.67;;;0.67;;
19278;SDS011;9773;47.062;15.446;2023-02-04T13:55:47;0.80;;;0.80;;
19278;SDS011;9773;47.062;15.446;2023-02-04T13:58:13;0.90;;;0.90;;
19278;SDS011;9773;47.062;15.446;2023-02-04T14:00:39;0.73;;;0.70;;
19278;SDS011;9773;47.062;15.446;2023-02-04T14:03:04;0.87;;;0.87;;
19278;SDS011;9773;47.062;15.446;2023-02-04T14:05:30;1.00;;;1.00;;
19278;SDS011;9773;47.062;15.446;2023-02-04T14:07:56;0.93;;;0.93;;
19278;SDS011;9773;47.062;15.446;2023-02-04T14:10:22;0.70;;;0.70;;
19278;SDS011;9773;47.062;15.446;2023-02-04T14:12:49;0.97;;;0.97;;
19278;SDS011;9773;47.062;15.446;2023-02-04T14:15:16;0.90;;;0.90;;
19278;SDS011;9773;47.062;15.446;2023-02-04T14:17:41;1.70;;;0.83;;
19278;SDS011;9773;47.062;15.446;2023-02-04T14:20:07;0.80;;;0.80;;
19278;SDS011;9773;47.062;15.446;2023-02-04T14:22:33;0.80;;;0.80;;
19278;SDS011;9773;47.062;15.446;2023-02-04T14:24:59;0.90;;;0.90;;
19278;SDS011;9773;47.062;15.446;2023-02-04T14:27:25;0.83;;;0.83;;
19278;SDS011;9773;47.062;15.446;2023-02-04T14:29:51;0.87;;;0.83;;
19278;SDS011;9773;47.062;15.446;2023-02-04T14:32:17;0.97;;;0.80;;
19278;SDS011;9773;47.062;15.446;2023-02-04T14:34:45;2.07;;;0.70;;
19278;SDS011;9773;47.062;15.446;2023-02-04T14:37:11;0.87;;;0.87;;
19278;SDS011;9773;47.062;15.446;2023-02-04T14:39:37;0.83;;;0.83;;
19278;SDS011;9773;47.062;15.446;2023-02-04T14:42:03;0.87;;;0.87;;
19278;SDS011;9773;47.062;15.446;2023-02-04T14:44:29;0.77;;;0.77;;
19278;SDS011;9773;47.062;15.446;2023-02-04T14:46:56;1.10;;;1.10;;
19278;SDS011;9773;47.062;15.446;2023-02-04T14:49:22;0.97;;;0.97;;
19278;SDS011;9773;47.062;15.446;2023-02-04T14:51:48;0.90;;;0.90;;
19278;SDS011;9773;47.062;15.446;2023-02-04T14:54:14;1.10;;;1.10;;
19278;SDS011;9773;47.062;15.446;2023-02-04T14:56:40;1.30;;;0.80;;
19278;SDS011;9773;47.062;15.446;2023-02-04T14:59:08;0.77;;;0.77;;
19278;SDS011;9773;47.062;15.446;2023-02-04T15:01:35;0.90;;;0.90;;
19278;SDS011;9773;47.062;15.446;2023-02-04T15:04:01;1.00;;;1.00;;
19278;SDS011;9773;47.062;15.446;2023-02-04T15:06:26;0.70;;;0.70;;
19278;SDS011;9773;47.062;15.446;2023-02-04T15:08:52;0.90;;;0.90;;
19278;SDS011;9773;47.062;15.446;2023-02-04T15:11:18;0.87;;;0.87;;
19278;SDS011;9773;47.062;15.446;2023-02-04T15:13:44;2.10;;;1.07;;
19278;SDS011;9773;47.062;15.446;2023-02-04T15:16:10;1.03;;;1.03;;
19278;SDS011;9773;47.062;15.446;2023-02-04T15:18:38;0.80;;;0.80;;
19278;SDS011;9773;47.062;15.446;2023-02-04T15:21:04;0.90;;;0.90;;